Time;durP1;ratioP1;P1;durP2;ratioP2;P2;SDS_P1;SDS_P2;PMS_P1;PMS_P2;Temp;Humidity;BMP_temperature;BMP_pressure;BME280_temperature;BME280_humidity;BME280_pressure;Samples;Min_cycle;Max_cycle;Signal;HPM_P1;HPM_P2
2024/01/27 00:02:16;;;;;;;23.58;5.03;;;;;;;-142.43;100.00;63430.59;6161884;23;20028;-80
2024/01/27 00:04:43;;;;;;;23.88;5.38;;;;;;;-142.43;100.00;63430.59;6160823;23;20056;-82
2024/01/27 00:07:11;;;;;;;17.75;4.80;;;;;;;-142.43;100.00;63430.59;6160278;23;20026;-81
2024/01/27 00:09:38;;;;;;;19.35;5.00;;;;;;;-142.43;100.00;63430.59;6161389;23;20032;-80
2024/01/27 00:12:05;;;;;;;14.52;4.80;;;;;;;-142.43;100.00;63430.59;6159988;23;20107;-81
2024/01/27 00:14:31;;;;;;;18.00;5.00;;;;;;;-142.43;100.00;63430.59;6160448;23;20022;-80
2024/01/27 00:16:58;;;;;;;19.60;5.20;;;;;;;-142.43;100.00;63430.59;6159526;23;20482;-82
2024/01/27 00:19:25;;;;;;;13.80;5.40;;;;;;;-142.43;100.00;63430.59;6159860;23;20032;-80
2024/01/27 00:21:52;;;;;;;21.15;6.47;;;;;;;-142.43;100.00;63430.59;6159909;23;20091;-80
2024/01/27 00:24:19;;;;;;;19.88;5.13;;;;;;;-142.43;100.00;63430.59;6159762;23;20026;-80
2024/01/27 00:26:46;;;;;;;18.60;4.95;;;;;;;-142.43;100.00;63430.59;6160860;23;20057;-81
2024/01/27 00:29:15;;;;;;;21.98;4.80;;;;;;;-142.43;100.00;63430.59;6161812;23;20036;-81
2024/01/27 00:31:41;;;;;;;26.27;5.50;;;;;;;-142.43;100.00;63430.59;6162088;23;20025;-81
2024/01/27 00:34:08;;;;;;;20.58;5.10;;;;;;;-142.43;100.00;63430.59;6162608;23;20047;-81
2024/01/27 00:36:36;;;;;;;19.02;5.40;;;;;;;-142.43;100.00;63430.59;6167088;23;20026;-79
2024/01/27 00:39:04;;;;;;;17.10;5.38;;;;;;;-142.43;100.00;63430.59;6160239;23;20661;-79
2024/01/27 00:41:32;;;;;;;18.33;5.50;;;;;;;-142.43;100.00;63430.59;6158045;23;20017;-79
2024/01/27 00:43:58;;;;;;;20.58;5.22;;;;;;;-142.43;100.00;63430.59;6159351;23;20025;-78
2024/01/27 00:46:27;;;;;;;18.65;5.55;;;;;;;-142.43;100.00;63430.59;6159708;23;20017;-78
2024/01/27 00:48:53;;;;;;;18.95;5.38;;;;;;;-142.43;100.00;63430.59;6160886;23;20092;-81
2024/01/27 00:51:20;;;;;;;16.15;5.03;;;;;;;-142.43;100.00;63430.59;6160294;23;20414;-78
2024/01/27 00:53:47;;;;;;;17.85;5.03;;;;;;;-142.43;100.00;63430.59;6160635;23;20096;-79
2024/01/27 00:56:13;;;;;;;17.48;5.70;;;;;;;-142.43;100.00;63430.59;6160530;23;20053;-79
2024/01/27 00:58:42;;;;;;;22.88;5.50;;;;;;;-142.43;100.00;63430.59;6160011;23;20037;-79
2024/01/27 01:01:08;;;;;;;18.08;5.20;;;;;;;-142.43;100.00;63430.59;6159230;23;20030;-80
2024/01/27 01:03:35;;;;;;;15.27;5.35;;;;;;;-142.43;100.00;63430.59;6158924;23;20076;-78
2024/01/27 01:06:02;;;;;;;21.45;5.07;;;;;;;-142.43;100.00;63430.59;6157956;23;20095;-79
2024/01/27 01:08:29;;;;;;;23.55;5.78;;;;;;;-142.43;100.00;63430.59;6159663;23;20021;-78
2024/01/27 01:10:56;;;;;;;20.55;5.13;;;;;;;-142.43;100.00;63430.59;6158703;23;20060;-77
2024/01/27 01:13:25;;;;;;;15.27;4.63;;;;;;;-142.43;100.00;63430.59;6158953;23;20029;-81
2024/01/27 01:15:53;;;;;;;18.95;4.70;;;;;;;-142.43;100.00;63430.59;6158510;23;20017;-79
2024/01/27 01:18:20;;;;;;;17.27;5.88;;;;;;;-142.43;100.00;63430.59;6157607;23;20466;-77
2024/01/27 01:20:47;;;;;;;15.60;5.22;;;;;;;-142.43;100.00;63430.59;6157289;23;20079;-79
2024/01/27 01:33:51;;;;;;;17.52;4.78;;;;;;;-142.43;100.00;63430.59;6167804;23;20040;-83
2024/01/27 01:36:34;;;;;;;16.95;6.18;;;;;;;-142.43;100.00;63430.59;6200093;23;20021;-84
2024/01/27 01:42:09;;;;;;;13.63;4.75;;;;;;;-142.43;100.00;63430.59;6154609;23;20021;-84
2024/01/27 01:44:40;;;;;;;16.77;4.82;;;;;;;-142.43;100.00;63430.59;6200655;23;20029;-84
2024/01/27 02:07:45;;;;;;;19.13;5.50;;;;;;;-142.43;100.00;63430.59;6011588;23;20029;-83
2024/01/27 02:11:02;;;;;;;20.33;4.70;;;;;;;-142.43;100.00;63430.59;6068276;23;20054;-85
2024/01/27 03:28:50;;;;;;;19.02;5.80;;;;;;;-142.43;100.00;63430.59;6091762;23;20025;-79
2024/01/27 03:31:17;;;;;;;20.75;6.47;;;;;;;-142.43;100.00;63430.59;6160929;23;20037;-80
2024/01/27 03:33:44;;;;;;;21.20;6.43;;;;;;;-142.43;100.00;63430.59;6160922;23;20064;-80
2024/01/27 03:36:11;;;;;;;19.83;5.68;;;;;;;-142.43;100.00;63430.59;6160138;23;20431;-80
2024/01/27 03:38:38;;;;;;;15.90;5.88;;;;;;;-142.43;100.00;63430.59;6160331;23;20018;-80
2024/01/27 03:41:06;;;;;;;20.15;6.57;;;;;;;-142.43;100.00;63430.59;6160673;23;20020;-80
2024/01/27 03:43:32;;;;;;;15.50;6.35;;;;;;;-142.43;100.00;63430.59;6158028;23;20063;-80
2024/01/27 03:46:01;;;;;;;27.65;6.57;;;;;;;-142.43;100.00;63430.59;6157263;23;20021;-79
2024/01/27 03:48:27;;;;;;;24.00;7.38;;;;;;;-142.43;100.00;63430.59;6158837;23;20022;-80
2024/01/27 03:50:55;;;;;;;27.25;6.05;;;;;;;-142.43;100.00;63430.59;6159833;23;20025;-81
2024/01/27 03:53:21;;;;;;;19.70;6.47;;;;;;;-142.43;100.00;63430.59;6159746;23;20104;-80
2024/01/27 03:55:48;;;;;;;24.60;7.82;;;;;;;-142.43;100.00;63430.59;6160930;23;20025;-79
2024/01/27 03:58:16;;;;;;;16.83;6.75;;;;;;;-142.43;100.00;63430.59;6161187;23;20088;-81
2024/01/27 04:00:45;;;;;;;22.20;6.70;;;;;;;-142.43;100.00;63430.59;6163751;23;20423;-81
2024/01/27 04:03:13;;;;;;;20.75;7.07;;;;;;;-142.43;100.00;63430.59;6164232;23;20036;-80
2024/01/27 04:05:42;;;;;;;25.83;5.95;;;;;;;-142.43;100.00;63430.59;6161763;23;20349;-80
2024/01/27 04:08:08;;;;;;;17.90;6.30;;;;;;;-142.43;100.00;63430.59;6160839;23;20017;-79
2024/01/27 04:10:35;;;;;;;26.35;6.75;;;;;;;-142.43;100.00;63430.59;6162150;23;20036;-79
2024/01/27 04:13:02;;;;;;;19.08;6.20;;;;;;;-142.43;100.00;63430.59;6162605;23;20014;-80
2024/01/27 04:15:28;;;;;;;22.88;6.45;;;;;;;-142.43;100.00;63430.59;6162574;23;20021;-80
2024/01/27 04:17:55;;;;;;;24.55;6.75;;;;;;;-142.43;100.00;63430.59;6162046;23;20025;-79
2024/01/27 04:20:23;;;;;;;19.98;6.82;;;;;;;-142.43;100.00;63430.59;6161763;23;20438;-80
2024/01/27 04:22:50;;;;;;;21.63;6.43;;;;;;;-142.43;100.00;63430.59;6163208;23;20033;-80
2024/01/27 04:25:17;;;;;;;21.83;5.80;;;;;;;-142.43;100.00;63430.59;6161073;23;20029;-80
2024/01/27 04:27:43;;;;;;;24.10;6.78;;;;;;;-142.43;100.00;63430.59;6151016;23;20080;-81
2024/01/27 04:30:12;;;;;;;19.67;7.18;;;;;;;-142.43;100.00;63430.59;6132345;23;20026;-81
2024/01/27 04:32:39;;;;;;;23.02;6.50;;;;;;;-142.43;100.00;63430.59;6134162;23;20069;-81
2024/01/27 04:35:09;;;;;;;20.90;6.95;;;;;;;-142.43;100.00;63430.59;6131448;23;20025;-80
2024/01/27 04:37:39;;;;;;;19.85;6.03;;;;;;;-142.43;100.00;63430.59;6132092;23;20056;-80
2024/01/27 04:40:06;;;;;;;20.75;6.05;;;;;;;-142.43;100.00;63430.59;6131353;23;20046;-79
2024/01/27 04:42:34;;;;;;;19.00;6.43;;;;;;;-142.43;100.00;63430.59;6131508;23;20351;-80
2024/01/27 04:45:00;;;;;;;19.27;6.35;;;;;;;-142.43;100.00;63430.59;6131515;23;20026;-80
2024/01/27 04:47:27;;;;;;;23.73;6.40;;;;;;;-142.43;100.00;63430.59;6130103;23;20053;-81
2024/01/27 04:49:54;;;;;;;28.38;6.18;;;;;;;-142.43;100.00;63430.59;6131092;23;20026;-79
2024/01/27 04:52:21;;;;;;;14.35;6.40;;;;;;;-142.43;100.00;63430.59;6130864;23;20026;-79
2024/01/27 04:54:49;;;;;;;15.77;6.47;;;;;;;-142.43;100.00;63430.59;6132265;23;20085;-80
2024/01/27 04:57:15;;;;;;;23.58;6.35;;;;;;;-142.43;100.00;63430.59;6130776;23;20077;-80
2024/01/27 04:59:45;;;;;;;30.05;6.22;;;;;;;-142.43;100.00;63430.59;6133291;23;20076;-79
2024/01/27 05:02:13;;;;;;;19.02;5.80;;;;;;;-142.43;100.00;63430.59;6132963;23;20037;-79
2024/01/27 05:04:39;;;;;;;16.65;5.85;;;;;;;-142.43;100.00;63430.59;6130192;23;20026;-80
2024/01/27 05:07:06;;;;;;;12.57;5.30;;;;;;;-142.43;100.00;63430.59;6136467;23;20022;-79
2024/01/27 05:09:35;;;;;;;11.85;5.18;;;;;;;-142.43;100.00;63430.59;6129830;23;20040;-80
2024/01/27 05:12:03;;;;;;;20.40;5.20;;;;;;;-142.43;100.00;63430.59;6129366;23;20026;-80
2024/01/27 05:14:30;;;;;;;23.67;6.25;;;;;;;-142.43;100.00;63430.59;6128314;23;20021;-80
2024/01/27 05:16:56;;;;;;;22.30;6.00;;;;;;;-142.43;100.00;63430.59;6128617;23;20046;-80
2024/01/27 05:19:23;;;;;;;17.00;6.40;;;;;;;-142.43;100.00;63430.59;6128229;23;20030;-79
2024/01/27 05:21:50;;;;;;;20.30;5.57;;;;;;;-142.43;100.00;63430.59;6127585;23;20054;-79
2024/01/27 05:24:16;;;;;;;15.25;5.55;;;;;;;-142.43;100.00;63430.59;6127137;23;20109;-79
2024/01/27 05:26:43;;;;;;;16.70;6.10;;;;;;;-142.43;100.00;63430.59;6128132;23;20085;-80
2024/01/27 05:29:11;;;;;;;18.83;5.53;;;;;;;-142.43;100.00;63430.59;6129098;23;20026;-81
2024/01/27 05:31:43;;;;;;;12.15;5.13;;;;;;;-142.43;100.00;63430.59;6130191;23;20088;-80
2024/01/27 05:34:09;;;;;;;21.90;6.10;;;;;;;-142.43;100.00;63430.59;6130169;23;20407;-80
2024/01/27 05:36:36;;;;;;;23.65;6.78;;;;;;;-142.43;100.00;63430.59;6130724;23;20026;-80
2024/01/27 05:39:04;;;;;;;20.98;5.43;;;;;;;-142.43;100.00;63430.59;6131323;23;20026;-80
2024/01/27 05:41:31;;;;;;;15.02;4.97;;;;;;;-142.43;100.00;63430.59;6136729;23;20025;-80
2024/01/27 05:43:58;;;;;;;16.63;6.13;;;;;;;-142.43;100.00;63430.59;6138633;23;20045;-81
2024/01/27 05:46:26;;;;;;;19.08;5.10;;;;;;;-142.43;100.00;63430.59;6148720;23;20101;-81
2024/01/27 05:48:57;;;;;;;16.83;5.72;;;;;;;-142.43;100.00;63430.59;6148097;23;20030;-82
2024/01/27 05:51:24;;;;;;;15.18;5.15;;;;;;;-142.43;100.00;63430.59;6139140;23;20026;-83
2024/01/27 05:53:51;;;;;;;17.75;5.43;;;;;;;-142.43;100.00;63430.59;6134274;23;20466;-81
2024/01/27 05:56:18;;;;;;;19.63;5.82;;;;;;;-142.43;100.00;63430.59;6131966;23;20045;-80
2024/01/27 05:58:45;;;;;;;22.25;7.03;;;;;;;-142.43;100.00;63430.59;6131902;23;20061;-81
2024/01/27 06:01:11;;;;;;;20.40;6.30;;;;;;;-142.43;100.00;63430.59;6132418;23;20097;-81
2024/01/27 06:03:42;;;;;;;19.08;5.22;;;;;;;-142.43;100.00;63430.59;6131902;23;20363;-81
2024/01/27 06:06:08;;;;;;;18.95;5.70;;;;;;;-142.43;100.00;63430.59;6132894;23;20390;-80
2024/01/27 06:08:35;;;;;;;22.63;7.03;;;;;;;-142.43;100.00;63430.59;6131769;23;20026;-82
2024/01/27 06:11:03;;;;;;;20.02;5.30;;;;;;;-142.43;100.00;63430.59;6131264;23;20022;-81
2024/01/27 06:13:29;;;;;;;19.38;5.78;;;;;;;-142.43;100.00;63430.59;6132158;23;20135;-80
2024/01/27 06:15:58;;;;;;;14.13;5.25;;;;;;;-142.43;100.00;63430.59;6132145;23;20026;-80
2024/01/27 06:18:25;;;;;;;15.40;5.15;;;;;;;-142.43;100.00;63430.59;6133139;23;20033;-81
2024/01/27 06:20:53;;;;;;;22.15;5.68;;;;;;;-142.43;100.00;63430.59;6133403;23;20025;-80
2024/01/27 06:23:20;;;;;;;17.98;6.78;;;;;;;-142.43;100.00;63430.59;6136073;23;20018;-81
2024/01/27 06:25:46;;;;;;;20.05;5.38;;;;;;;-142.43;100.00;63430.59;6136508;23;20470;-79
2024/01/27 06:28:13;;;;;;;17.60;5.38;;;;;;;-142.43;100.00;63430.59;6134550;23;20034;-80
2024/01/27 06:30:39;;;;;;;20.65;5.50;;;;;;;-142.43;100.00;63430.59;6131457;23;20026;-80
2024/01/27 06:33:09;;;;;;;15.40;5.88;;;;;;;-142.43;100.00;63430.59;6131790;23;20026;-80
2024/01/27 06:35:35;;;;;;;16.60;5.10;;;;;;;-142.43;100.00;63430.59;6131889;23;20049;-81
2024/01/27 06:38:03;;;;;;;21.48;7.65;;;;;;;-142.43;100.00;63430.59;6131055;23;20022;-80
2024/01/27 06:40:30;;;;;;;27.92;11.10;;;;;;;-142.43;100.00;63430.59;6131477;23;20018;-80
2024/01/27 06:42:57;;;;;;;14.60;5.28;;;;;;;-142.43;100.00;63430.59;6131437;23;20022;-81
2024/01/27 06:45:23;;;;;;;15.40;5.38;;;;;;;-142.43;100.00;63430.59;6131679;23;20040;-80
2024/01/27 06:47:50;;;;;;;19.55;5.57;;;;;;;-142.43;100.00;63430.59;6126123;23;20097;-80
2024/01/27 06:50:16;;;;;;;15.98;5.35;;;;;;;-142.43;100.00;63430.59;6129374;23;20030;-83
2024/01/27 06:52:43;;;;;;;22.20;5.63;;;;;;;-142.43;100.00;63430.59;6129539;23;20502;-80
2024/01/27 06:55:11;;;;;;;15.93;5.32;;;;;;;-142.43;100.00;63430.59;6130547;23;20510;-79
2024/01/27 06:57:40;;;;;;;16.10;6.38;;;;;;;-142.43;100.00;63430.59;6133623;23;20021;-79
2024/01/27 07:00:08;;;;;;;21.58;6.43;;;;;;;-142.43;100.00;63430.59;6130751;23;20533;-80
2024/01/27 07:02:35;;;;;;;22.45;6.72;;;;;;;-142.43;100.00;63430.59;6130437;23;20104;-82
2024/01/27 07:05:01;;;;;;;24.98;7.18;;;;;;;-142.43;100.00;63430.59;6130072;23;20057;-78
2024/01/27 07:07:29;;;;;;;23.52;6.68;;;;;;;-142.43;100.00;63430.59;6128545;23;20022;-80
2024/01/27 07:09:56;;;;;;;20.33;5.70;;;;;;;-142.43;100.00;63430.59;6129268;23;20047;-80
2024/01/27 07:12:24;;;;;;;20.40;5.43;;;;;;;-142.43;100.00;63430.59;6131402;23;20076;-81
2024/01/27 07:14:52;;;;;;;21.42;5.93;;;;;;;-142.43;100.00;63430.59;6130135;23;20033;-81
2024/01/27 07:17:18;;;;;;;17.35;5.68;;;;;;;-142.43;100.00;63430.59;6130356;23;20537;-82
2024/01/27 07:19:45;;;;;;;19.08;5.85;;;;;;;-142.43;100.00;63430.59;6130559;23;20021;-82
2024/01/27 07:22:12;;;;;;;16.85;5.85;;;;;;;-142.43;100.00;63430.59;6134931;23;20033;-82
2024/01/27 07:24:38;;;;;;;15.98;5.88;;;;;;;-142.43;100.00;63430.59;6130874;23;20022;-82
2024/01/27 07:27:05;;;;;;;17.23;7.85;;;;;;;-142.43;100.00;63430.59;6123731;23;20025;-82
2024/01/27 07:29:33;;;;;;;19.23;5.90;;;;;;;-142.43;100.00;63430.59;6158348;23;20025;-81
2024/01/27 07:32:00;;;;;;;15.85;5.40;;;;;;;-142.43;100.00;63430.59;6159948;23;20455;-80
2024/01/27 07:34:27;;;;;;;25.38;6.05;;;;;;;-142.43;100.00;63430.59;6160682;23;20025;-82
2024/01/27 07:36:53;;;;;;;15.95;5.35;;;;;;;-142.43;100.00;63430.59;6160507;23;20057;-82
2024/01/27 07:39:20;;;;;;;19.77;7.05;;;;;;;-142.43;100.00;63430.59;6161727;23;20152;-80
2024/01/27 07:41:48;;;;;;;17.23;6.05;;;;;;;-142.43;100.00;63430.59;6161946;23;20021;-80
2024/01/27 07:44:15;;;;;;;21.40;6.15;;;;;;;-142.43;100.00;63430.59;6161371;23;20021;-81
2024/01/27 07:46:43;;;;;;;24.45;8.63;;;;;;;-142.43;100.00;63430.59;6161176;23;20044;-82
2024/01/27 07:49:12;;;;;;;15.25;5.63;;;;;;;-142.43;100.00;63430.59;6162091;23;20025;-81
2024/01/27 07:51:38;;;;;;;13.13;5.45;;;;;;;-142.43;100.00;63430.59;6162489;23;20053;-82
2024/01/27 07:54:05;;;;;;;17.75;5.15;;;;;;;-142.43;100.00;63430.59;6163991;23;20022;-81
2024/01/27 07:56:31;;;;;;;18.10;6.18;;;;;;;-142.43;100.00;63430.59;6162149;23;20017;-81
2024/01/27 07:58:58;;;;;;;16.67;5.63;;;;;;;-142.43;100.00;63430.59;6168913;23;20041;-83
2024/01/27 08:01:25;;;;;;;17.30;5.13;;;;;;;-142.43;100.00;63430.59;6173683;23;20029;-82
2024/01/27 08:03:53;;;;;;;16.77;6.32;;;;;;;-142.43;100.00;63430.59;6173109;23;20036;-82
2024/01/27 08:06:23;;;;;;;22.42;7.00;;;;;;;-142.43;100.00;63430.59;6168910;23;20346;-83
2024/01/27 08:08:50;;;;;;;19.80;5.60;;;;;;;-142.43;100.00;63430.59;6162096;23;20500;-82
2024/01/27 08:11:17;;;;;;;15.43;4.90;;;;;;;-142.43;100.00;63430.59;6165074;23;20477;-83
2024/01/27 08:13:44;;;;;;;13.38;5.00;;;;;;;-142.43;100.00;63430.59;6175101;23;20044;-84
2024/01/27 08:16:12;;;;;;;16.92;5.70;;;;;;;-142.43;100.00;63430.59;6177296;23;20032;-83
2024/01/27 08:18:42;;;;;;;13.85;6.03;;;;;;;-142.43;100.00;63430.59;6177731;23;20036;-83
2024/01/27 08:21:11;;;;;;;19.45;5.15;;;;;;;-142.43;100.00;63430.59;6176570;23;20275;-82
2024/01/27 08:23:38;;;;;;;14.52;4.85;;;;;;;-142.43;100.00;63430.59;6175062;23;20032;-84
2024/01/27 08:26:05;;;;;;;16.85;5.38;;;;;;;-142.43;100.00;63430.59;6173341;23;20025;-84
2024/01/27 08:28:32;;;;;;;15.68;5.25;;;;;;;-142.43;100.00;63430.59;6161727;23;20076;-80
2024/01/27 08:30:59;;;;;;;17.40;5.32;;;;;;;-142.43;100.00;63430.59;6158607;23;20076;-80
2024/01/27 08:33:26;;;;;;;14.10;4.50;;;;;;;-142.43;100.00;63430.59;6158251;23;20021;-80
2024/01/27 08:35:53;;;;;;;15.27;4.82;;;;;;;-142.43;100.00;63430.59;6159009;23;20077;-81
2024/01/27 08:38:21;;;;;;;18.73;5.22;;;;;;;-142.43;100.00;63430.59;6158007;23;20026;-82
2024/01/27 08:40:48;;;;;;;14.77;5.32;;;;;;;-142.43;100.00;63430.59;6159465;23;20029;-81
2024/01/27 08:43:14;;;;;;;16.25;5.30;;;;;;;-142.43;100.00;63430.59;6157585;23;20030;-81
2024/01/27 08:45:41;;;;;;;14.82;5.07;;;;;;;-142.43;100.00;63430.59;6159178;23;20025;-82
2024/01/27 08:48:11;;;;;;;15.98;5.43;;;;;;;-142.43;100.00;63430.59;6158937;23;20025;-81
2024/01/27 08:50:38;;;;;;;13.18;5.03;;;;;;;-142.43;100.00;63430.59;6178475;23;20009;-83
2024/01/27 08:53:05;;;;;;;17.42;6.15;;;;;;;-142.43;100.00;63430.59;6179119;23;20025;-84
2024/01/27 08:55:33;;;;;;;14.35;5.35;;;;;;;-142.43;100.00;63430.59;6179412;23;20022;-83
2024/01/27 08:57:59;;;;;;;13.65;5.18;;;;;;;-142.43;100.00;63430.59;6179303;23;20021;-82
2024/01/27 09:00:26;;;;;;;16.55;5.30;;;;;;;-142.43;100.00;63430.59;6170717;23;20036;-82
2024/01/27 09:02:53;;;;;;;18.67;5.20;;;;;;;-142.43;100.00;63430.59;6169353;23;20025;-82
2024/01/27 09:05:20;;;;;;;13.57;5.35;;;;;;;-142.43;100.00;63430.59;6169139;23;20045;-81
2024/01/27 09:07:47;;;;;;;14.02;5.47;;;;;;;-142.43;100.00;63430.59;6169941;23;20045;-82
2024/01/27 09:10:15;;;;;;;17.27;5.53;;;;;;;-142.43;100.00;63430.59;6169438;23;20139;-82
2024/01/27 09:12:43;;;;;;;19.27;5.90;;;;;;;-142.43;100.00;63430.59;6171560;23;20022;-82
2024/01/27 09:15:10;;;;;;;19.95;5.07;;;;;;;-142.43;100.00;63430.59;6170567;23;20454;-82
2024/01/27 09:17:37;;;;;;;15.88;6.03;;;;;;;-142.43;100.00;63430.59;6170633;23;20025;-81
2024/01/27 09:20:04;;;;;;;13.10;5.53;;;;;;;-142.43;100.00;63430.59;6169622;23;20470;-81
2024/01/27 09:22:31;;;;;;;17.90;5.43;;;;;;;-142.43;100.00;63430.59;6167890;23;20029;-82
2024/01/27 09:24:57;;;;;;;15.23;5.47;;;;;;;-142.43;100.00;63430.59;6167394;23;20037;-82
2024/01/27 09:30:09;;;;;;;16.13;5.70;;;;;;;-142.43;100.00;63430.59;6125541;23;20022;-84
2024/01/27 09:36:05;;;;;;;24.35;6.45;;;;;;;-142.43;100.00;63430.59;6136049;23;20531;-86
2024/01/27 09:38:50;;;;;;;15.32;5.93;;;;;;;-142.43;100.00;63430.59;6135048;23;20022;-83
2024/01/27 09:41:25;;;;;;;18.92;5.30;;;;;;;-142.43;100.00;63430.59;6135191;23;20080;-85
2024/01/27 09:44:03;;;;;;;15.90;5.68;;;;;;;-142.43;100.00;63430.59;6138861;23;20016;-85
2024/01/27 09:46:39;;;;;;;20.25;6.00;;;;;;;-142.43;100.00;63430.59;6141116;23;20110;-86
2024/01/27 09:49:14;;;;;;;15.15;5.53;;;;;;;-142.43;100.00;63430.59;6141300;23;20045;-85
2024/01/27 09:51:48;;;;;;;13.27;5.20;;;;;;;-142.43;100.00;63430.59;6142394;23;20081;-84
2024/01/27 09:54:22;;;;;;;14.30;5.13;;;;;;;-142.43;100.00;63430.59;6143588;23;20045;-85
2024/01/27 09:56:58;;;;;;;16.92;5.15;;;;;;;-142.43;100.00;63430.59;6148097;23;20009;-86
2024/01/27 09:59:34;;;;;;;14.10;5.95;;;;;;;-142.43;100.00;63430.59;6151002;23;20025;-86
2024/01/27 10:02:20;;;;;;;15.75;5.13;;;;;;;-142.43;100.00;63430.59;6150716;23;20010;-86
2024/01/27 10:04:55;;;;;;;15.75;5.13;;;;;;;-142.43;100.00;63430.59;6140159;23;20062;-84
2024/01/27 10:07:26;;;;;;;15.45;4.90;;;;;;;-142.43;100.00;63430.59;6133877;23;20028;-84
2024/01/27 10:10:08;;;;;;;17.60;5.18;;;;;;;-142.43;100.00;63430.59;6133794;23;20029;-84
2024/01/27 10:15:49;;;;;;;11.65;5.18;;;;;;;-142.43;100.00;63430.59;6127328;23;20037;-84
2024/01/27 10:18:45;;;;;;;18.08;5.50;;;;;;;-142.43;100.00;63430.59;6133088;23;20029;-83
2024/01/27 10:21:30;;;;;;;17.77;5.90;;;;;;;-142.43;100.00;63430.59;6094001;23;20085;-84
2024/01/27 10:24:44;;;;;;;19.95;5.47;;;;;;;-142.43;100.00;63430.59;6133098;23;20036;-83
2024/01/27 10:27:18;;;;;;;9.75;4.60;;;;;;;-142.43;100.00;63430.59;6134079;23;20085;-83
2024/01/27 10:33:14;;;;;;;14.25;4.93;;;;;;;-142.43;100.00;63430.59;6121063;23;20482;-83
2024/01/27 10:53:30;;;;;;;11.65;4.70;;;;;;;-142.43;100.00;63430.59;5964176;23;20023;-82
2024/01/27 11:12:11;;;;;;;11.95;5.53;;;;;;;-142.43;100.00;63430.59;6144686;23;20022;-86
2024/01/27 11:14:38;;;;;;;13.07;5.35;;;;;;;-142.43;100.00;63430.59;6142532;23;20034;-86
2024/01/27 11:20:11;;;;;;;15.55;5.72;;;;;;;-142.43;100.00;63430.59;5955183;24;20059;-85
2024/01/27 11:22:43;;;;;;;24.13;5.93;;;;;;;-142.43;100.00;63430.59;6109709;23;20034;-87
2024/01/27 11:25:16;;;;;;;17.23;5.47;;;;;;;-142.43;100.00;63430.59;6114312;23;20049;-87
2024/01/27 11:27:45;;;;;;;8.38;4.10;;;;;;;-142.43;100.00;63430.59;6109889;23;20056;-88
2024/01/27 11:30:33;;;;;;;15.63;4.80;;;;;;;-142.43;100.00;63430.59;6105390;23;20030;-86
2024/01/27 11:33:03;;;;;;;17.30;4.97;;;;;;;-142.43;100.00;63430.59;6102515;23;20026;-88
2024/01/27 11:35:31;;;;;;;14.13;5.05;;;;;;;-142.43;100.00;63430.59;6109093;23;20058;-87
2024/01/27 11:38:07;;;;;;;14.07;4.65;;;;;;;-142.43;100.00;63430.59;6101599;23;20026;-84
2024/01/27 11:41:21;;;;;;;14.05;5.85;;;;;;;-142.43;100.00;63430.59;6103220;23;20359;-84
2024/01/27 11:44:21;;;;;;;18.13;4.68;;;;;;;-142.43;100.00;63430.59;6104349;23;20406;-84
2024/01/27 11:47:32;;;;;;;12.93;4.72;;;;;;;-142.43;100.00;63430.59;6104537;23;20061;-84
2024/01/27 12:10:19;;;;;;;11.57;4.35;;;;;;;-142.43;100.00;63430.59;5973045;23;20088;-86
2024/01/27 12:16:47;;;;;;;11.75;4.28;;;;;;;-142.43;100.00;63430.59;6064942;23;20037;-82
2024/01/27 12:19:47;;;;;;;12.35;4.25;;;;;;;-142.43;100.00;63430.59;6081905;23;20101;-86
2024/01/27 12:29:23;;;;;;;12.25;4.72;;;;;;;-142.43;100.00;63430.59;5992932;24;20103;-84
2024/01/27 12:35:27;;;;;;;11.10;4.40;;;;;;;-142.43;100.00;63430.59;6077200;23;20022;-85
2024/01/27 12:38:18;;;;;;;16.58;4.90;;;;;;;-142.43;100.00;63430.59;6082599;23;20087;-86
2024/01/27 12:41:32;;;;;;;18.75;5.53;;;;;;;-142.43;100.00;63430.59;6083322;23;20353;-85
2024/01/27 12:48:02;;;;;;;14.05;4.85;;;;;;;-142.43;100.00;63430.59;5867014;24;20045;-85
2024/01/27 12:51:03;;;;;;;16.33;4.45;;;;;;;-142.43;100.00;63430.59;5970208;23;20024;-85
2024/01/27 13:02:26;;;;;;;16.85;4.47;;;;;;;-142.43;100.00;63430.59;6021119;23;20027;-85
2024/01/27 13:05:20;;;;;;;11.60;4.20;;;;;;;-142.43;100.00;63430.59;6021253;23;20028;-84
2024/01/27 13:08:11;;;;;;;11.30;4.45;;;;;;;-142.43;100.00;63430.59;6020667;23;20019;-84
2024/01/27 13:10:39;;;;;;;14.88;4.35;;;;;;;-142.43;100.00;63430.59;6130455;23;20387;-84
2024/01/27 13:16:46;;;;;;;18.63;4.63;;;;;;;-142.43;100.00;63430.59;6046628;23;20019;-84
2024/01/27 13:19:39;;;;;;;19.27;5.35;;;;;;;-142.43;100.00;63430.59;6052178;23;20078;-83
2024/01/27 13:22:24;;;;;;;17.73;4.88;;;;;;;-142.43;100.00;63430.59;6133697;23;20026;-84
2024/01/27 13:28:11;;;;;;;21.48;4.70;;;;;;;-142.43;100.00;63430.59;6038350;23;20019;-87
2024/01/27 13:30:43;;;;;;;11.63;4.45;;;;;;;-142.43;100.00;63430.59;6133116;23;20044;-84
2024/01/27 13:33:49;;;;;;;14.30;4.53;;;;;;;-142.43;100.00;63430.59;6134488;23;20026;-84
2024/01/27 13:36:16;;;;;;;14.85;4.43;;;;;;;-142.43;100.00;63430.59;6137618;23;20077;-85
2024/01/27 14:00:28;;;;;;;15.00;4.15;;;;;;;-142.43;100.00;63430.59;5879748;24;20032;-85
2024/01/27 15:28:47;;;;;;;;;;;;;;;;;;;;;
2024/01/27 15:31:22;;;;;;;17.17;5.45;;;;;;;-142.43;100.00;63430.59;5993571;23;20075;-76
2024/01/27 15:33:52;;;;;;;12.75;4.68;;;;;;;-142.43;100.00;63430.59;6133105;23;20013;-81
2024/01/27 15:36:28;;;;;;;15.48;5.80;;;;;;;-142.43;100.00;63430.59;6132998;23;20030;-80
2024/01/27 15:38:58;;;;;;;15.27;5.18;;;;;;;-142.43;100.00;63430.59;6133901;23;20076;-81
2024/01/27 15:41:28;;;;;;;16.02;5.68;;;;;;;-142.43;100.00;63430.59;6132839;23;20025;-80
2024/01/27 15:43:58;;;;;;;15.63;5.43;;;;;;;-142.43;100.00;63430.59;6134861;23;20040;-81
2024/01/27 15:46:28;;;;;;;15.80;5.18;;;;;;;-142.43;100.00;63430.59;6133090;23;20362;-79
2024/01/27 15:49:03;;;;;;;19.88;5.57;;;;;;;-142.43;100.00;63430.59;6132604;23;20085;-82
2024/01/27 15:51:38;;;;;;;15.48;5.75;;;;;;;-142.43;100.00;63430.59;6132880;23;20463;-82
2024/01/27 15:54:18;;;;;;;14.77;5.57;;;;;;;-142.43;100.00;63430.59;6132402;23;20022;-79
2024/01/27 15:56:47;;;;;;;15.43;5.45;;;;;;;-142.43;100.00;63430.59;6133211;23;20018;-81
2024/01/27 15:59:18;;;;;;;15.50;5.70;;;;;;;-142.43;100.00;63430.59;6133298;23;20418;-80
2024/01/27 16:01:47;;;;;;;17.05;5.50;;;;;;;-142.43;100.00;63430.59;6128562;23;20022;-79
2024/01/27 16:04:16;;;;;;;19.42;5.85;;;;;;;-142.43;100.00;63430.59;6132095;23;20046;-80
2024/01/27 16:06:43;;;;;;;14.93;6.22;;;;;;;-142.43;100.00;63430.59;6132756;23;20022;-79
2024/01/27 16:09:10;;;;;;;16.33;5.32;;;;;;;-142.43;100.00;63430.59;6129899;23;20049;-79
2024/01/27 16:11:37;;;;;;;14.18;5.72;;;;;;;-142.43;100.00;63430.59;6131168;23;20033;-80
2024/01/27 16:14:06;;;;;;;19.92;5.35;;;;;;;-142.43;100.00;63430.59;6131991;23;20076;-79
2024/01/27 16:21:44;;;;;;;14.40;5.40;;;;;;;-142.43;100.00;63430.59;6109405;23;20028;-86
2024/01/27 23:24:41;;;;;;;28.27;8.65;;;;;;;-142.43;100.00;63430.59;6137030;23;20025;-81
2024/01/27 23:27:08;;;;;;;20.48;8.50;;;;;;;-142.43;100.00;63430.59;6157981;23;20025;-81
2024/01/27 23:29:38;;;;;;;21.25;9.00;;;;;;;-142.43;100.00;63430.59;6158243;23;20086;-80
2024/01/27 23:32:05;;;;;;;17.98;10.02;;;;;;;-142.43;100.00;63430.59;6158477;23;20017;-79
2024/01/27 23:34:32;;;;;;;18.10;10.00;;;;;;;-142.43;100.00;63430.59;6159035;23;20026;-80
2024/01/27 23:36:58;;;;;;;23.73;9.48;;;;;;;-142.43;100.00;63430.59;6160021;23;20029;-82
2024/01/27 23:39:25;;;;;;;22.20;9.05;;;;;;;-142.43;100.00;63430.59;6159688;23;20036;-82
2024/01/27 23:41:53;;;;;;;25.88;10.35;;;;;;;-142.43;100.00;63430.59;6159038;23;20095;-82
2024/01/27 23:44:20;;;;;;;18.67;9.05;;;;;;;-142.43;100.00;63430.59;6159161;23;20029;-83